^^
Station Historical Data
Daily Summary for February 3, 2017 Units:  Metric    English   Both
« Previous Day
Next Day »
Daily Weekly Monthly Yearly Custom
  High: Low: Average:
Temperature: 34.7 °C 21.6 °C 27.1 °C
Dew Point: 16 °C 12 °C 14.6 °C
Humidity: 67% 28% 49%
Wind Speed: 32km/h 0km/h 7.2km/h
Wind Gust: 43.5km/h - -
Wind- - West
Pressure: 1008.4 hPa 1001.2 hPa -
Precipitation: 0 mm    
Historical Graphs
 
 
Tabular Data for February 3, 2017
Time Temperature Dew Point Pressure Wind Wind Speed Wind Gust Humidity Rainfall Rate (Hourly) solar Conditions
01:11 25.6 °C 15 °C 1008.4 hPa NNW 13 km/h 17.7 km/h 52% 0 mm 0.0 W/m2
01:16 25.6 °C 15 °C 1008 hPa NNW 9.7 km/h 24.1 km/h 52% 0 mm 0.0 W/m2
01:21 25.4 °C 14.8 °C 1008 hPa North 13 km/h 22.5 km/h 52% 0 mm 0.0 W/m2
01:26 25.4 °C 15.1 °C 1008 hPa NNW 19.5 km/h 30.6 km/h 53% 0 mm 0.0 W/m2
01:31 25.3 °C 15 °C 1008 hPa NNW 13 km/h 25.7 km/h 53% 0 mm 0.0 W/m2
01:41 25.2 °C 14.9 °C 1007.7 hPa Calm   17.7 km/h 53% 0 mm 0.0 W/m2
01:51 25.2 °C 14.9 °C 1007.3 hPa NW 13 km/h 24.1 km/h 53% 0 mm 0.0 W/m2
01:56 25.1 °C 14.8 °C 1007.3 hPa NW 14.3 km/h 27.4 km/h 53% 0 mm 0.0 W/m2
02:01 25.1 °C 14.8 °C 1007 hPa NNW 14.3 km/h 24.1 km/h 53% 0 mm 0.0 W/m2
02:06 25 °C 15 °C 1006.7 hPa NW 19.5 km/h 24.1 km/h 54% 0 mm 0.0 W/m2
02:11 24.9 °C 15 °C 1007 hPa NNW 3.2 km/h 25.7 km/h 54% 0 mm 0.0 W/m2
02:16 24.8 °C 15.1 °C 1007 hPa NNW 9.7 km/h 19.3 km/h 55% 0 mm 0.0 W/m2
02:21 24.8 °C 15.1 °C 1007 hPa NNW 7.9 km/h 19.3 km/h 55% 0 mm 0.0 W/m2
02:26 24.7 °C 15.3 °C 1007 hPa NNW 11.1 km/h 22.5 km/h 56% 0 mm 0.0 W/m2
02:31 24.5 °C 15.4 °C 1006.7 hPa Calm   12.9 km/h 57% 0 mm 0.0 W/m2
02:36 24.4 °C 15.6 °C 1006.7 hPa Calm   19.3 km/h 58% 0 mm 0.0 W/m2
02:46 24.2 °C 15.7 °C 1006.7 hPa Calm     59% 0 mm 0.0 W/m2
02:51 24.2 °C 15.9 °C 1006.3 hPa Calm     60% 0 mm 0.0 W/m2
02:57 24.1 °C 15.8 °C 1006.3 hPa Calm     60% 0 mm 0.0 W/m2
03:02 24 °C 16 °C 1006.3 hPa Calm     61% 0 mm 0.0 W/m2
03:07 24 °C 16 °C 1006 hPa Calm     61% 0 mm 0.0 W/m2
03:12 23.9 °C 15.9 °C 1006 hPa Calm     61% 0 mm 0.0 W/m2
03:17 23.9 °C 15.9 °C 1005.6 hPa Calm     61% 0 mm 0.0 W/m2
03:23 23.9 °C 15.9 °C 1005.6 hPa Calm     61% 0 mm 0.0 W/m2
03:28 23.8 °C 15.8 °C 1005.6 hPa Calm     61% 0 mm 0.0 W/m2
03:33 23.8 °C 15.6 °C 1005.6 hPa Calm     60% 0 mm 0.0 W/m2
03:38 23.8 °C 15.6 °C 1005.3 hPa Calm     60% 0 mm 0.0 W/m2
03:43 23.8 °C 15.6 °C 1005.3 hPa Calm     60% 0 mm 0.0 W/m2
03:49 23.7 °C 15.5 °C 1005.3 hPa Calm     60% 0 mm 0.0 W/m2
03:54 23.7 °C 15.5 °C 1005.3 hPa Calm     60% 0 mm 0.0 W/m2
04:04 23.7 °C 15.5 °C 1005.3 hPa Calm     60% 0 mm 0.0 W/m2
04:10 23.6 °C 15.4 °C 1005.3 hPa Calm     60% 0 mm 0.0 W/m2
04:15 23.5 °C 15.3 °C 1005.6 hPa Calm     60% 0 mm 0.0 W/m2
04:20 23.4 °C 15.2 °C 1005.3 hPa Calm     60% 0 mm 0.0 W/m2
04:25 23.3 °C 15.4 °C 1005.3 hPa Calm     61% 0 mm 0.0 W/m2
04:30 23.1 °C 15.2 °C 1005 hPa Calm     61% 0 mm 0.0 W/m2
04:36 23 °C 15.3 °C 1005 hPa Calm     62% 0 mm 0.0 W/m2
04:41 22.8 °C 15.1 °C 1005 hPa Calm     62% 0 mm 0.0 W/m2
04:46 22.6 °C 15.2 °C 1005 hPa Calm     63% 0 mm 0.0 W/m2
04:51 22.4 °C 15.3 °C 1005 hPa Calm     64% 0 mm 0.0 W/m2
04:56 22.4 °C 15.3 °C 1005 hPa Calm     64% 0 mm 0.0 W/m2
05:02 22.4 °C 15.3 °C 1005 hPa Calm     64% 0 mm 0.0 W/m2
05:07 22.3 °C 15.2 °C 1005.3 hPa Calm     64% 0 mm 0.0 W/m2
05:12 22.2 °C 15.3 °C 1005.3 hPa Calm     65% 0 mm 0.0 W/m2
05:17 22.2 °C 15.3 °C 1005.3 hPa Calm     65% 0 mm 0.0 W/m2
05:22 22.1 °C 15.2 °C 1005.3 hPa Calm     65% 0 mm 0.0 W/m2
05:28 22.1 °C 15.2 °C 1005.3 hPa Calm     65% 0 mm 0.0 W/m2
05:33 22 °C 15.1 °C 1005.3 hPa Calm     65% 0 mm 0.0 W/m2
05:38 22 °C 15.1 °C 1005.3 hPa Calm     65% 0 mm 0.0 W/m2
05:44 21.9 °C 15 °C 1005.3 hPa Calm     65% 0 mm 0.0 W/m2
05:54 21.8 °C 15.2 °C 1005.6 hPa Calm     66% 0 mm 0.0 W/m2
06:09 21.6 °C 15.2 °C 1005.6 hPa Calm   6.4 km/h 67% 0 mm 0.0 W/m2
06:17 21.7 °C 15.3 °C 1005.6 hPa Calm     67% 0 mm 0.0 W/m2
06:19 21.8 °C 15.2 °C 1006 hPa Calm     66% 0 mm 0.0 W/m2
06:29 22 °C 15.1 °C 1006 hPa Calm     65% 0 mm 0.0 W/m2
06:35 22.1 °C 15.2 °C 1006 hPa Calm     65% 0 mm 5.0 W/m2
06:56 22.4 °C 15.3 °C 1006.7 hPa Calm     64% 0 mm 37.0 W/m2
07:48 24.8 °C 15.4 °C 1007.3 hPa Calm     56% 0 mm 218.0 W/m2
07:56 24.9 °C 15.5 °C 1007.3 hPa Calm   12.9 km/h 56% 0 mm 262.0 W/m2
08:05 25.1 °C 15.1 °C 1007.3 hPa Calm   9.7 km/h 54% 0 mm 301.0 W/m2
08:19 25.6 °C 15.3 °C 1007.3 hPa Calm   11.3 km/h 53% 0 mm 355.0 W/m2
08:34 25.8 °C 15.2 °C 1007.7 hPa NNW 11.1 km/h 24.1 km/h 52% 0 mm 415.0 W/m2
08:39 25.9 °C 15 °C 1007.7 hPa NNW 7.9 km/h 14.5 km/h 51% 0 mm 216.0 W/m2
08:49 25.8 °C 14.9 °C 1007.7 hPa Calm   12.9 km/h 51% 0 mm 158.0 W/m2
08:55 25.9 °C 14.4 °C 1007.7 hPa Calm     49% 0 mm 197.0 W/m2
09:02 26.3 °C 14.1 °C 1007.3 hPa NW 9.7 km/h 17.7 km/h 47% 0 mm 517.0 W/m2
09:12 27.2 °C 13.9 °C 1007.7 hPa NNW 9.7 km/h 12.9 km/h 44% 0 mm 580.0 W/m2
09:23 27.3 °C 14.3 °C 1007.7 hPa NNW 7.9 km/h 9.7 km/h 45% 0 mm 599.0 W/m2
09:29 27.7 °C 13.3 °C 1007.3 hPa NNW 11.1 km/h 24.1 km/h 41% 0 mm 594.0 W/m2
09:44 28 °C 13.5 °C 1007.7 hPa NNW 13 km/h 19.3 km/h 41% 0 mm 624.0 W/m2
09:56 28.3 °C 13.8 °C 1007.3 hPa NNW 9.7 km/h 14.5 km/h 41% 0 mm 675.0 W/m2
10:11 28.7 °C 14.1 °C 1007.3 hPa NW 25.9 km/h 25.9 km/h 41% 0 mm 735.0 W/m2
10:19 29.1 °C 13.7 °C 1007.3 hPa North 6.4 km/h 22.5 km/h 39% 0 mm 733.0 W/m2
10:34 29.2 °C 13.8 °C 1007 hPa NW 6.4 km/h 22.5 km/h 39% 0 mm 775.0 W/m2
10:56 30 °C 13.3 °C 1007 hPa North 14.3 km/h 20.9 km/h 36% 0 mm 810.0 W/m2
11:04 30.1 °C 14.2 °C 1006.7 hPa NNW 11.1 km/h 22.5 km/h 38% 0 mm 838.0 W/m2
11:19 30.3 °C 14 °C 1006.3 hPa North 13 km/h 17.7 km/h 37% 0 mm 868.0 W/m2
11:34 31.2 °C 13.9 °C 1006.3 hPa North 11.1 km/h 17.7 km/h 35% 0 mm 891.0 W/m2
11:54 31.7 °C 14.4 °C 1006 hPa NNW 9.7 km/h 17.7 km/h 35% 0 mm 912.0 W/m2
12:02 31.7 °C 14.4 °C 1006 hPa North 9.7 km/h 14.5 km/h 35% 0 mm 925.0 W/m2
13:01 33.1 °C 15.1 °C 1005.3 hPa NE 7.9 km/h 17.7 km/h 34% 0 mm 979.0 W/m2
13:11 33 °C 14.1 °C 1005.3 hPa North 3.2 km/h 22.5 km/h 32% 0 mm 967.0 W/m2
13:26 33.4 °C 14.9 °C 1005 hPa NNW 22.7 km/h 22.7 km/h 33% 0 mm 1021.0 W/m2
13:38 33.3 °C 14.8 °C 1004.6 hPa NNW 14.3 km/h 22.5 km/h 33% 0 mm 991.0 W/m2
13:46 33.8 °C 13.3 °C 1004.6 hPa Calm   4.8 km/h 29% 0 mm 962.0 W/m2
14:06 33.8 °C 14.3 °C 1004.3 hPa Calm   6.4 km/h 31% 0 mm 169.0 W/m2
14:11 34.1 °C 14.1 °C 1004.3 hPa NE 3.2 km/h 17.7 km/h 30% 0 mm 1074.0 W/m2
14:33 33.6 °C 14.1 °C 1003.9 hPa NNE 1.4 km/h 9.7 km/h 31% 0 mm 264.0 W/m2
14:48 33.2 °C 13.8 °C 1003.6 hPa Calm     31% 0 mm 216.0 W/m2
14:56 33.3 °C 13.4 °C 1003.3 hPa NNW 9.7 km/h 11.3 km/h 30% 0 mm 253.0 W/m2
15:18 33.6 °C 13.6 °C 1002.9 hPa North 19.5 km/h 19.5 km/h 30% 0 mm 988.0 W/m2
15:27 34.4 °C 13.3 °C 1002.9 hPa Calm   6.4 km/h 28% 0 mm 250.0 W/m2
15:32 34.7 °C 13.5 °C 1002.6 hPa NNW 6.4 km/h 14.5 km/h 28% 0 mm 213.0 W/m2
15:49 34.6 °C 13.4 °C 1002.6 hPa Calm     28% 0 mm 557.0 W/m2
16:03 34.5 °C 13.9 °C 1001.9 hPa NW 6.4 km/h 20.9 km/h 29% 0 mm 174.0 W/m2
16:08 34.2 °C 13.1 °C 1001.9 hPa Calm     28% 0 mm 144.0 W/m2
16:23 34.3 °C 13.2 °C 1001.6 hPa Calm     28% 0 mm 141.0 W/m2
16:39 34.1 °C 13.5 °C 1001.2 hPa Calm     29% 0 mm 104.0 W/m2
16:50 32.7 °C 14.3 °C 1001.6 hPa South 32 km/h 40.2 km/h 33% 0 mm 155.0 W/m2
17:00 31.6 °C 13.8 °C 1001.9 hPa South 24.1 km/h 43.5 km/h 34% 0 mm 172.0 W/m2
17:10 32.1 °C 12.8 °C 1001.9 hPa SW 22.7 km/h 35.4 km/h 31% 0 mm 380.0 W/m2
17:20 31.7 °C 13 °C 1001.9 hPa SW 30.6 km/h 38.6 km/h 32% 0 mm 283.0 W/m2
17:35 31.7 °C 13 °C 1001.9 hPa SSW 27.4 km/h 33.8 km/h 32% 0 mm 192.0 W/m2
17:50 32 °C 13.2 °C 1001.9 hPa SSW 24.1 km/h 38.6 km/h 32% 0 mm 295.0 W/m2
18:11 31.8 °C 13.1 °C 1002.3 hPa SSW 20.9 km/h 33.8 km/h 32% 0 mm 163.0 W/m2
18:24 31.2 °C 13 °C 1002.6 hPa SSW 25.9 km/h 29 km/h 33% 0 mm 86.0 W/m2
18:37 31 °C 12.8 °C 1002.6 hPa SSW 22.7 km/h 25.7 km/h 33% 0 mm 171.0 W/m2
18:53 30.5 °C 12.9 °C 1002.9 hPa SSW 25.9 km/h 33.8 km/h 34% 0 mm 62.0 W/m2
19:00 30 °C 12 °C 1003.3 hPa SSW 22.7 km/h 32.2 km/h 33% 0 mm 74.0 W/m2
19:21 29.6 °C 12.1 °C 1003.6 hPa SSW 22.7 km/h 29 km/h 34% 0 mm 25.0 W/m2
19:25 29.2 °C 12.2 °C 1003.6 hPa SSW 27.4 km/h 27.4 km/h 35% 0 mm 12.0 W/m2
19:40 28.8 °C 12.2 °C 1003.9 hPa SSW 19.5 km/h 24.1 km/h 36% 0 mm 7.0 W/m2
19:48 28.6 °C 12.1 °C 1004.3 hPa South 24.1 km/h 25.7 km/h 36% 0 mm 0.0 W/m2
Canyon Roadhouse, Fishriver Canyon, Namibia
Compliments of Weather Underground - 2.25 mb